Atica — EA4943 — position and weather

sailwx.info

Track history (hours):
 
Tides and Currents Weather Stations Pressure Air Temp Water Temp Dewpoint Dewpoint Depression Visibility Wind Speed Wind Dir Waves Ship Positions

Atica

Last reported at 2017-Jul-17 10:07 UTC. Time now 2017-Jul-28 08:55 UTC.
Position N 39°50' E 002°43'.
Warning: this ship's position is 10 days out of date.

Type: Sailing vessel. MMSI: 224499180.

Date/timePositionNaut miles runAvg speedWind from/ knotsBaromVisibWave heightAir tempDewpointWater temp
2017-Jul-17 10:07N 39°50' E 002°43'1 7.3
2017-Jul-17 10:00N 39°49' E 002°42'4 7.2
2017-Jul-17 09:23N 39°46' E 002°38'18 5.1
2017-Jul-17 05:47N 39°31' E 002°25'2 6.1
2017-Jul-17 05:28N 39°31' E 002°27'1 0.0
2017-Jul-16 16:17N 39°31' E 002°28'1 3.1
2017-Jul-16 15:58N 39°31' E 002°27'3 6.3
2017-Jul-16 15:30N 39°30' E 002°23'4 7.4
2017-Jul-16 14:59N 39°28' E 002°19'3 6.4
2017-Jul-16 14:29N 39°26' E 002°15'4 6.5
2017-Jul-16 13:54N 39°24' E 002°11'3 7.7
2017-Jul-16 13:29N 39°23' E 002°07'3 6.7
2017-Jul-16 13:00N 39°21' E 002°04'5 7.3
2017-Jul-16 12:19N 39°19' E 001°58'  
2017-Jul-09 11:02N 38°50' E 001°23'0 0.1
2017-Jul-09 10:55N 38°50' E 001°23'7 0.3
2017-Jul-08 08:36N 38°43' E 001°23'  
Track history (hours):
 
Tides and Currents Weather Stations Pressure Air Temp Water Temp Dewpoint Dewpoint Depression Visibility Wind Speed Wind Dir Waves Ship Positions

Atica

Last reported at 2017-Jul-17 10:07 UTC. Time now 2017-Jul-28 08:55 UTC.
Position N 39°50' E 002°43'.
Warning: this ship's position is 10 days out of date.

Type: Sailing vessel. MMSI: 224499180.

Date/timePositionNaut miles runAvg speedWind from/ knotsBaromVisibWave heightAir tempDewpointWater temp
2017-Jul-17 10:07N 39°50' E 002°43'1 7.3
2017-Jul-17 10:00N 39°49' E 002°42'4 7.2
2017-Jul-17 09:23N 39°46' E 002°38'18 5.1
2017-Jul-17 05:47N 39°31' E 002°25'2 6.1
2017-Jul-17 05:28N 39°31' E 002°27'1 0.0
2017-Jul-16 16:17N 39°31' E 002°28'1 3.1
2017-Jul-16 15:58N 39°31' E 002°27'3 6.3
2017-Jul-16 15:30N 39°30' E 002°23'4 7.4
2017-Jul-16 14:59N 39°28' E 002°19'3 6.4
2017-Jul-16 14:29N 39°26' E 002°15'4 6.5
2017-Jul-16 13:54N 39°24' E 002°11'3 7.7
2017-Jul-16 13:29N 39°23' E 002°07'3 6.7
2017-Jul-16 13:00N 39°21' E 002°04'5 7.3
2017-Jul-16 12:19N 39°19' E 001°58'  
2017-Jul-09 11:02N 38°50' E 001°23'0 0.1
2017-Jul-09 10:55N 38°50' E 001°23'7 0.3
2017-Jul-08 08:36N 38°43' E 001°23'  

Dump ship's entire track history